sensor_id;sensor_type;location;lat;lon;timestamp;P1;durP1;ratioP1;P2;durP2;ratioP2
21661;SDS011;10992;48.170;8.596;2023-10-31T00:01:53;0.90;;;0.60;;
21661;SDS011;10992;48.170;8.596;2023-10-31T00:04:21;1.00;;;0.90;;
21661;SDS011;10992;48.170;8.596;2023-10-31T00:06:48;1.73;;;0.60;;
21661;SDS011;10992;48.170;8.596;2023-10-31T00:09:16;0.68;;;0.60;;
21661;SDS011;10992;48.170;8.596;2023-10-31T00:11:42;0.65;;;0.57;;
21661;SDS011;10992;48.170;8.596;2023-10-31T00:14:10;0.60;;;0.55;;
21661;SDS011;10992;48.170;8.596;2023-10-31T00:16:56;1.45;;;0.60;;
21661;SDS011;10992;48.170;8.596;2023-10-31T00:19:24;0.82;;;0.60;;
21661;SDS011;10992;48.170;8.596;2023-10-31T00:21:50;1.13;;;0.63;;
21661;SDS011;10992;48.170;8.596;2023-10-31T00:24:17;1.15;;;0.60;;
21661;SDS011;10992;48.170;8.596;2023-10-31T00:26:44;1.83;;;0.40;;
21661;SDS011;10992;48.170;8.596;2023-10-31T00:29:11;0.93;;;0.63;;
21661;SDS011;10992;48.170;8.596;2023-10-31T00:31:38;0.60;;;0.50;;
21661;SDS011;10992;48.170;8.596;2023-10-31T00:34:07;0.65;;;0.50;;
21661;SDS011;10992;48.170;8.596;2023-10-31T00:36:35;0.85;;;0.63;;
21661;SDS011;10992;48.170;8.596;2023-10-31T00:39:01;0.90;;;0.65;;
21661;SDS011;10992;48.170;8.596;2023-10-31T00:41:30;0.65;;;0.60;;
21661;SDS011;10992;48.170;8.596;2023-10-31T00:43:57;0.90;;;0.70;;
21661;SDS011;10992;48.170;8.596;2023-10-31T00:46:24;1.10;;;0.60;;
21661;SDS011;10992;48.170;8.596;2023-10-31T00:48:51;0.60;;;0.60;;
21661;SDS011;10992;48.170;8.596;2023-10-31T00:51:18;1.00;;;0.60;;
21661;SDS011;10992;48.170;8.596;2023-10-31T00:53:45;1.25;;;0.50;;
21661;SDS011;10992;48.170;8.596;2023-10-31T00:56:12;0.70;;;0.52;;
21661;SDS011;10992;48.170;8.596;2023-10-31T00:58:39;1.08;;;0.80;;
21661;SDS011;10992;48.170;8.596;2023-10-31T01:01:06;0.60;;;0.60;;
21661;SDS011;10992;48.170;8.596;2023-10-31T01:03:33;0.80;;;0.60;;
21661;SDS011;10992;48.170;8.596;2023-10-31T01:06:00;0.93;;;0.50;;
21661;SDS011;10992;48.170;8.596;2023-10-31T01:08:27;0.47;;;0.45;;
21661;SDS011;10992;48.170;8.596;2023-10-31T01:10:54;1.33;;;0.60;;
21661;SDS011;10992;48.170;8.596;2023-10-31T01:13:21;0.50;;;0.50;;
21661;SDS011;10992;48.170;8.596;2023-10-31T01:15:48;0.60;;;0.60;;
21661;SDS011;10992;48.170;8.596;2023-10-31T01:18:15;0.73;;;0.50;;
21661;SDS011;10992;48.170;8.596;2023-10-31T01:20:42;1.08;;;0.60;;
21661;SDS011;10992;48.170;8.596;2023-10-31T01:23:09;0.65;;;0.55;;
21661;SDS011;10992;48.170;8.596;2023-10-31T01:25:36;1.20;;;0.70;;
21661;SDS011;10992;48.170;8.596;2023-10-31T01:28:03;0.77;;;0.40;;
21661;SDS011;10992;48.170;8.596;2023-10-31T01:30:30;1.08;;;0.60;;
21661;SDS011;10992;48.170;8.596;2023-10-31T01:32:58;1.30;;;0.60;;
21661;SDS011;10992;48.170;8.596;2023-10-31T01:35:25;1.55;;;0.80;;
21661;SDS011;10992;48.170;8.596;2023-10-31T01:37:52;0.55;;;0.40;;
21661;SDS011;10992;48.170;8.596;2023-10-31T01:40:19;1.20;;;0.93;;
21661;SDS011;10992;48.170;8.596;2023-10-31T01:42:46;2.50;;;0.68;;
21661;SDS011;10992;48.170;8.596;2023-10-31T01:45:13;2.28;;;0.60;;
21661;SDS011;10992;48.170;8.596;2023-10-31T01:47:40;1.33;;;0.60;;
21661;SDS011;10992;48.170;8.596;2023-10-31T01:50:07;2.05;;;0.57;;
21661;SDS011;10992;48.170;8.596;2023-10-31T01:52:36;0.68;;;0.60;;
21661;SDS011;10992;48.170;8.596;2023-10-31T01:55:03;1.05;;;0.68;;
21661;SDS011;10992;48.170;8.596;2023-10-31T01:57:31;0.85;;;0.50;;
21661;SDS011;10992;48.170;8.596;2023-10-31T01:59:59;1.00;;;0.50;;
21661;SDS011;10992;48.170;8.596;2023-10-31T02:02:26;0.68;;;0.60;;
21661;SDS011;10992;48.170;8.596;2023-10-31T02:04:54;2.17;;;0.82;;
21661;SDS011;10992;48.170;8.596;2023-10-31T02:07:22;0.93;;;0.77;;
21661;SDS011;10992;48.170;8.596;2023-10-31T02:09:48;4.57;;;0.63;;
21661;SDS011;10992;48.170;8.596;2023-10-31T02:12:34;2.40;;;0.60;;
21661;SDS011;10992;48.170;8.596;2023-10-31T02:15:02;3.10;;;0.88;;
21661;SDS011;10992;48.170;8.596;2023-10-31T02:17:29;0.70;;;0.60;;
21661;SDS011;10992;48.170;8.596;2023-10-31T02:19:57;2.90;;;0.70;;
21661;SDS011;10992;48.170;8.596;2023-10-31T02:22:24;0.90;;;0.70;;
21661;SDS011;10992;48.170;8.596;2023-10-31T02:24:51;2.85;;;0.77;;
21661;SDS011;10992;48.170;8.596;2023-10-31T02:27:18;2.80;;;0.82;;
21661;SDS011;10992;48.170;8.596;2023-10-31T02:29:45;2.35;;;0.90;;
21661;SDS011;10992;48.170;8.596;2023-10-31T02:32:12;4.53;;;1.02;;
21661;SDS011;10992;48.170;8.596;2023-10-31T02:34:39;4.78;;;1.48;;
21661;SDS011;10992;48.170;8.596;2023-10-31T02:37:06;1.35;;;0.70;;
21661;SDS011;10992;48.170;8.596;2023-10-31T02:39:33;1.30;;;0.90;;
21661;SDS011;10992;48.170;8.596;2023-10-31T02:42:00;1.70;;;0.80;;
21661;SDS011;10992;48.170;8.596;2023-10-31T02:44:27;1.10;;;0.80;;
21661;SDS011;10992;48.170;8.596;2023-10-31T02:46:54;1.23;;;0.88;;
21661;SDS011;10992;48.170;8.596;2023-10-31T02:49:21;1.92;;;0.82;;
21661;SDS011;10992;48.170;8.596;2023-10-31T02:51:49;1.88;;;0.80;;
21661;SDS011;10992;48.170;8.596;2023-10-31T02:54:15;1.08;;;0.70;;
21661;SDS011;10992;48.170;8.596;2023-10-31T02:56:42;1.58;;;0.73;;
21661;SDS011;10992;48.170;8.596;2023-10-31T02:59:09;3.70;;;1.10;;
21661;SDS011;10992;48.170;8.596;2023-10-31T03:01:36;1.58;;;1.15;;
21661;SDS011;10992;48.170;8.596;2023-10-31T03:04:03;2.67;;;0.73;;
21661;SDS011;10992;48.170;8.596;2023-10-31T03:06:30;1.45;;;0.88;;
21661;SDS011;10992;48.170;8.596;2023-10-31T03:08:57;2.25;;;0.90;;
21661;SDS011;10992;48.170;8.596;2023-10-31T03:11:25;2.47;;;1.02;;
21661;SDS011;10992;48.170;8.596;2023-10-31T03:13:55;2.05;;;0.80;;
21661;SDS011;10992;48.170;8.596;2023-10-31T03:16:23;0.95;;;0.70;;
21661;SDS011;10992;48.170;8.596;2023-10-31T03:18:50;2.47;;;0.70;;
21661;SDS011;10992;48.170;8.596;2023-10-31T03:21:18;2.20;;;0.93;;
21661;SDS011;10992;48.170;8.596;2023-10-31T03:23:49;1.77;;;0.70;;
21661;SDS011;10992;48.170;8.596;2023-10-31T03:26:16;1.38;;;0.70;;
21661;SDS011;10992;48.170;8.596;2023-10-31T03:28:43;0.80;;;0.70;;
21661;SDS011;10992;48.170;8.596;2023-10-31T03:31:11;1.33;;;0.70;;
21661;SDS011;10992;48.170;8.596;2023-10-31T03:33:39;3.53;;;0.80;;
21661;SDS011;10992;48.170;8.596;2023-10-31T03:36:07;1.00;;;0.70;;
21661;SDS011;10992;48.170;8.596;2023-10-31T03:38:38;0.88;;;0.77;;
21661;SDS011;10992;48.170;8.596;2023-10-31T03:41:05;0.63;;;0.60;;
21661;SDS011;10992;48.170;8.596;2023-10-31T03:43:32;1.10;;;0.75;;
21661;SDS011;10992;48.170;8.596;2023-10-31T03:45:59;3.55;;;0.93;;
21661;SDS011;10992;48.170;8.596;2023-10-31T03:48:27;1.35;;;0.63;;
21661;SDS011;10992;48.170;8.596;2023-10-31T03:50:53;0.82;;;0.70;;
21661;SDS011;10992;48.170;8.596;2023-10-31T03:53:20;2.67;;;0.60;;
21661;SDS011;10992;48.170;8.596;2023-10-31T03:55:47;1.83;;;0.60;;
21661;SDS011;10992;48.170;8.596;2023-10-31T03:58:14;2.08;;;0.80;;
21661;SDS011;10992;48.170;8.596;2023-10-31T04:00:41;0.47;;;0.47;;
21661;SDS011;10992;48.170;8.596;2023-10-31T04:03:08;0.90;;;0.60;;
21661;SDS011;10992;48.170;8.596;2023-10-31T04:05:35;0.82;;;0.60;;
21661;SDS011;10992;48.170;8.596;2023-10-31T04:08:02;0.55;;;0.55;;
21661;SDS011;10992;48.170;8.596;2023-10-31T04:10:29;1.38;;;0.52;;
21661;SDS011;10992;48.170;8.596;2023-10-31T04:12:56;1.08;;;0.70;;
21661;SDS011;10992;48.170;8.596;2023-10-31T04:15:23;2.20;;;0.73;;
21661;SDS011;10992;48.170;8.596;2023-10-31T04:17:50;1.90;;;0.60;;
21661;SDS011;10992;48.170;8.596;2023-10-31T04:20:17;0.82;;;0.60;;
21661;SDS011;10992;48.170;8.596;2023-10-31T04:22:44;1.35;;;0.60;;
21661;SDS011;10992;48.170;8.596;2023-10-31T04:25:11;0.65;;;0.60;;
21661;SDS011;10992;48.170;8.596;2023-10-31T04:27:38;1.55;;;0.73;;
21661;SDS011;10992;48.170;8.596;2023-10-31T04:30:05;1.63;;;0.60;;
21661;SDS011;10992;48.170;8.596;2023-10-31T04:32:33;0.80;;;0.50;;
21661;SDS011;10992;48.170;8.596;2023-10-31T04:35:00;0.80;;;0.60;;
21661;SDS011;10992;48.170;8.596;2023-10-31T04:37:27;2.38;;;0.90;;
21661;SDS011;10992;48.170;8.596;2023-10-31T04:39:55;0.90;;;0.60;;
21661;SDS011;10992;48.170;8.596;2023-10-31T04:42:22;1.10;;;0.90;;
21661;SDS011;10992;48.170;8.596;2023-10-31T04:44:49;1.38;;;0.80;;
21661;SDS011;10992;48.170;8.596;2023-10-31T04:47:16;0.93;;;0.65;;
21661;SDS011;10992;48.170;8.596;2023-10-31T04:49:43;1.48;;;0.70;;
21661;SDS011;10992;48.170;8.596;2023-10-31T04:52:10;1.25;;;0.63;;
21661;SDS011;10992;48.170;8.596;2023-10-31T04:54:38;2.63;;;0.88;;
21661;SDS011;10992;48.170;8.596;2023-10-31T04:57:06;2.30;;;0.63;;
21661;SDS011;10992;48.170;8.596;2023-10-31T04:59:33;2.55;;;0.82;;
21661;SDS011;10992;48.170;8.596;2023-10-31T05:02:00;1.10;;;0.70;;
21661;SDS011;10992;48.170;8.596;2023-10-31T05:04:26;1.48;;;0.80;;
21661;SDS011;10992;48.170;8.596;2023-10-31T05:06:53;2.83;;;0.73;;
21661;SDS011;10992;48.170;8.596;2023-10-31T05:09:20;1.52;;;1.08;;
21661;SDS011;10992;48.170;8.596;2023-10-31T05:11:47;2.42;;;1.10;;
21661;SDS011;10992;48.170;8.596;2023-10-31T05:14:14;2.47;;;1.50;;
21661;SDS011;10992;48.170;8.596;2023-10-31T05:16:44;2.13;;;1.35;;
21661;SDS011;10992;48.170;8.596;2023-10-31T05:19:11;3.03;;;0.93;;
21661;SDS011;10992;48.170;8.596;2023-10-31T05:21:38;1.33;;;0.77;;
21661;SDS011;10992;48.170;8.596;2023-10-31T05:24:05;1.90;;;0.80;;
21661;SDS011;10992;48.170;8.596;2023-10-31T05:26:33;4.22;;;1.00;;
21661;SDS011;10992;48.170;8.596;2023-10-31T05:28:59;3.55;;;1.25;;
21661;SDS011;10992;48.170;8.596;2023-10-31T05:31:27;1.85;;;1.13;;
21661;SDS011;10992;48.170;8.596;2023-10-31T05:33:54;3.78;;;1.38;;
21661;SDS011;10992;48.170;8.596;2023-10-31T05:36:22;3.35;;;1.05;;
21661;SDS011;10992;48.170;8.596;2023-10-31T05:38:50;2.95;;;1.30;;
21661;SDS011;10992;48.170;8.596;2023-10-31T05:41:17;1.73;;;1.20;;
21661;SDS011;10992;48.170;8.596;2023-10-31T05:43:44;1.10;;;0.98;;
21661;SDS011;10992;48.170;8.596;2023-10-31T05:46:12;3.10;;;1.40;;
21661;SDS011;10992;48.170;8.596;2023-10-31T05:48:46;3.50;;;2.00;;
21661;SDS011;10992;48.170;8.596;2023-10-31T05:51:13;4.78;;;2.50;;
21661;SDS011;10992;48.170;8.596;2023-10-31T05:53:43;6.45;;;3.83;;
21661;SDS011;10992;48.170;8.596;2023-10-31T05:56:11;6.97;;;3.88;;
21661;SDS011;10992;48.170;8.596;2023-10-31T05:58:40;6.85;;;3.20;;
21661;SDS011;10992;48.170;8.596;2023-10-31T06:01:08;6.93;;;3.38;;
21661;SDS011;10992;48.170;8.596;2023-10-31T06:03:35;8.15;;;2.65;;
21661;SDS011;10992;48.170;8.596;2023-10-31T06:06:02;3.58;;;1.92;;
21661;SDS011;10992;48.170;8.596;2023-10-31T06:08:29;2.20;;;2.00;;
21661;SDS011;10992;48.170;8.596;2023-10-31T06:10:56;3.85;;;1.98;;
21661;SDS011;10992;48.170;8.596;2023-10-31T06:13:24;2.10;;;1.25;;
21661;SDS011;10992;48.170;8.596;2023-10-31T06:15:57;3.67;;;1.70;;
21661;SDS011;10992;48.170;8.596;2023-10-31T06:18:27;3.45;;;1.27;;
21661;SDS011;10992;48.170;8.596;2023-10-31T06:20:55;6.40;;;1.98;;
21661;SDS011;10992;48.170;8.596;2023-10-31T06:23:22;3.53;;;1.30;;
21661;SDS011;10992;48.170;8.596;2023-10-31T06:25:49;4.35;;;1.25;;
21661;SDS011;10992;48.170;8.596;2023-10-31T06:28:16;3.10;;;1.48;;
21661;SDS011;10992;48.170;8.596;2023-10-31T06:30:43;4.28;;;1.35;;
21661;SDS011;10992;48.170;8.596;2023-10-31T06:33:10;5.07;;;1.80;;
21661;SDS011;10992;48.170;8.596;2023-10-31T06:35:38;6.22;;;2.05;;
21661;SDS011;10992;48.170;8.596;2023-10-31T06:38:05;4.32;;;2.10;;
21661;SDS011;10992;48.170;8.596;2023-10-31T06:40:32;4.90;;;1.92;;
21661;SDS011;10992;48.170;8.596;2023-10-31T06:42:59;3.80;;;1.90;;
21661;SDS011;10992;48.170;8.596;2023-10-31T06:45:27;4.43;;;2.10;;
21661;SDS011;10992;48.170;8.596;2023-10-31T06:47:54;3.05;;;1.45;;
21661;SDS011;10992;48.170;8.596;2023-10-31T06:50:21;2.05;;;1.33;;
21661;SDS011;10992;48.170;8.596;2023-10-31T06:52:48;2.15;;;1.50;;
21661;SDS011;10992;48.170;8.596;2023-10-31T06:55:15;5.45;;;1.63;;
21661;SDS011;10992;48.170;8.596;2023-10-31T06:57:42;3.42;;;1.20;;
21661;SDS011;10992;48.170;8.596;2023-10-31T07:00:11;4.32;;;1.40;;
21661;SDS011;10992;48.170;8.596;2023-10-31T07:02:38;3.60;;;1.25;;
21661;SDS011;10992;48.170;8.596;2023-10-31T07:05:06;4.43;;;1.65;;
21661;SDS011;10992;48.170;8.596;2023-10-31T07:07:34;6.68;;;2.47;;
21661;SDS011;10992;48.170;8.596;2023-10-31T07:10:01;12.18;;;3.72;;
21661;SDS011;10992;48.170;8.596;2023-10-31T07:12:27;8.65;;;3.50;;
21661;SDS011;10992;48.170;8.596;2023-10-31T07:14:54;9.60;;;3.53;;
21661;SDS011;10992;48.170;8.596;2023-10-31T07:17:21;9.90;;;3.97;;
21661;SDS011;10992;48.170;8.596;2023-10-31T07:19:48;5.60;;;2.97;;
21661;SDS011;10992;48.170;8.596;2023-10-31T07:22:16;6.72;;;2.15;;
21661;SDS011;10992;48.170;8.596;2023-10-31T07:24:42;3.80;;;1.63;;
21661;SDS011;10992;48.170;8.596;2023-10-31T07:27:09;6.57;;;2.40;;
21661;SDS011;10992;48.170;8.596;2023-10-31T07:29:39;5.93;;;2.55;;
21661;SDS011;10992;48.170;8.596;2023-10-31T07:32:07;4.20;;;1.83;;
21661;SDS011;10992;48.170;8.596;2023-10-31T07:34:36;2.28;;;1.83;;
21661;SDS011;10992;48.170;8.596;2023-10-31T07:37:07;4.85;;;2.13;;
21661;SDS011;10992;48.170;8.596;2023-10-31T07:39:34;3.03;;;1.88;;
21661;SDS011;10992;48.170;8.596;2023-10-31T07:42:01;5.25;;;1.50;;
21661;SDS011;10992;48.170;8.596;2023-10-31T07:44:28;1.98;;;1.40;;
21661;SDS011;10992;48.170;8.596;2023-10-31T07:46:55;4.63;;;1.80;;
21661;SDS011;10992;48.170;8.596;2023-10-31T07:49:22;3.60;;;1.45;;
21661;SDS011;10992;48.170;8.596;2023-10-31T07:51:48;3.92;;;1.90;;
21661;SDS011;10992;48.170;8.596;2023-10-31T07:54:15;3.47;;;1.55;;
21661;SDS011;10992;48.170;8.596;2023-10-31T07:56:42;3.63;;;1.95;;
21661;SDS011;10992;48.170;8.596;2023-10-31T07:59:09;4.72;;;1.88;;
21661;SDS011;10992;48.170;8.596;2023-10-31T08:01:37;4.45;;;1.70;;
21661;SDS011;10992;48.170;8.596;2023-10-31T08:04:04;5.90;;;1.63;;
21661;SDS011;10992;48.170;8.596;2023-10-31T08:06:32;3.30;;;1.52;;
21661;SDS011;10992;48.170;8.596;2023-10-31T08:08:59;4.68;;;1.35;;
21661;SDS011;10992;48.170;8.596;2023-10-31T08:11:25;3.95;;;1.50;;
21661;SDS011;10992;48.170;8.596;2023-10-31T08:13:52;3.97;;;1.60;;
21661;SDS011;10992;48.170;8.596;2023-10-31T08:16:20;4.13;;;1.25;;
21661;SDS011;10992;48.170;8.596;2023-10-31T08:18:47;3.53;;;1.85;;
21661;SDS011;10992;48.170;8.596;2023-10-31T08:21:14;2.72;;;1.02;;
21661;SDS011;10992;48.170;8.596;2023-10-31T08:23:41;5.82;;;1.52;;
21661;SDS011;10992;48.170;8.596;2023-10-31T08:26:10;2.55;;;1.35;;
21661;SDS011;10992;48.170;8.596;2023-10-31T08:28:39;2.28;;;1.17;;
21661;SDS011;10992;48.170;8.596;2023-10-31T08:31:07;3.03;;;1.70;;
21661;SDS011;10992;48.170;8.596;2023-10-31T08:33:34;3.40;;;1.50;;
21661;SDS011;10992;48.170;8.596;2023-10-31T08:36:01;6.80;;;1.80;;
21661;SDS011;10992;48.170;8.596;2023-10-31T08:38:29;3.25;;;1.10;;
21661;SDS011;10992;48.170;8.596;2023-10-31T08:40:58;5.55;;;1.30;;
21661;SDS011;10992;48.170;8.596;2023-10-31T08:43:26;3.10;;;1.10;;
21661;SDS011;10992;48.170;8.596;2023-10-31T08:45:55;3.17;;;1.10;;
21661;SDS011;10992;48.170;8.596;2023-10-31T08:48:22;4.63;;;1.42;;
21661;SDS011;10992;48.170;8.596;2023-10-31T08:50:49;4.18;;;1.30;;
21661;SDS011;10992;48.170;8.596;2023-10-31T08:53:16;5.10;;;1.73;;
21661;SDS011;10992;48.170;8.596;2023-10-31T08:55:45;4.78;;;1.58;;
21661;SDS011;10992;48.170;8.596;2023-10-31T08:58:12;5.25;;;1.25;;
21661;SDS011;10992;48.170;8.596;2023-10-31T09:00:40;4.63;;;1.80;;
21661;SDS011;10992;48.170;8.596;2023-10-31T09:03:08;5.40;;;1.73;;
21661;SDS011;10992;48.170;8.596;2023-10-31T09:05:35;5.18;;;1.73;;
21661;SDS011;10992;48.170;8.596;2023-10-31T09:08:02;6.60;;;1.75;;
21661;SDS011;10992;48.170;8.596;2023-10-31T09:10:29;5.90;;;2.00;;
21661;SDS011;10992;48.170;8.596;2023-10-31T09:13:00;3.10;;;1.40;;
21661;SDS011;10992;48.170;8.596;2023-10-31T09:15:26;5.55;;;1.48;;
21661;SDS011;10992;48.170;8.596;2023-10-31T09:17:53;4.82;;;1.33;;
21661;SDS011;10992;48.170;8.596;2023-10-31T09:20:20;2.42;;;1.20;;
21661;SDS011;10992;48.170;8.596;2023-10-31T09:22:47;4.93;;;1.25;;
21661;SDS011;10992;48.170;8.596;2023-10-31T09:25:14;3.80;;;1.20;;
21661;SDS011;10992;48.170;8.596;2023-10-31T09:27:41;3.05;;;1.40;;
21661;SDS011;10992;48.170;8.596;2023-10-31T09:30:08;5.00;;;1.50;;
21661;SDS011;10992;48.170;8.596;2023-10-31T09:32:35;4.55;;;1.70;;
21661;SDS011;10992;48.170;8.596;2023-10-31T09:35:03;3.50;;;1.30;;
21661;SDS011;10992;48.170;8.596;2023-10-31T09:37:31;3.72;;;1.60;;
21661;SDS011;10992;48.170;8.596;2023-10-31T09:39:57;3.42;;;1.60;;
21661;SDS011;10992;48.170;8.596;2023-10-31T09:42:24;4.00;;;1.27;;
21661;SDS011;10992;48.170;8.596;2023-10-31T09:44:51;3.35;;;1.05;;
21661;SDS011;10992;48.170;8.596;2023-10-31T09:47:19;4.80;;;1.20;;
21661;SDS011;10992;48.170;8.596;2023-10-31T09:49:47;4.68;;;1.30;;
21661;SDS011;10992;48.170;8.596;2023-10-31T09:52:14;3.67;;;1.08;;
21661;SDS011;10992;48.170;8.596;2023-10-31T09:54:41;2.33;;;1.50;;
21661;SDS011;10992;48.170;8.596;2023-10-31T09:57:12;4.13;;;1.33;;
21661;SDS011;10992;48.170;8.596;2023-10-31T09:59:40;0.90;;;0.85;;
21661;SDS011;10992;48.170;8.596;2023-10-31T10:02:07;4.20;;;1.23;;
21661;SDS011;10992;48.170;8.596;2023-10-31T10:04:35;4.68;;;1.50;;
21661;SDS011;10992;48.170;8.596;2023-10-31T10:07:04;2.00;;;1.10;;
21661;SDS011;10992;48.170;8.596;2023-10-31T10:09:31;2.25;;;0.90;;
21661;SDS011;10992;48.170;8.596;2023-10-31T10:11:59;4.63;;;0.90;;
21661;SDS011;10992;48.170;8.596;2023-10-31T10:14:27;0.82;;;0.73;;
21661;SDS011;10992;48.170;8.596;2023-10-31T10:16:55;2.15;;;0.70;;
21661;SDS011;10992;48.170;8.596;2023-10-31T10:19:22;1.17;;;0.63;;
21661;SDS011;10992;48.170;8.596;2023-10-31T10:21:53;2.22;;;0.70;;
21661;SDS011;10992;48.170;8.596;2023-10-31T10:24:24;0.90;;;0.60;;
21661;SDS011;10992;48.170;8.596;2023-10-31T10:26:51;1.20;;;0.60;;
21661;SDS011;10992;48.170;8.596;2023-10-31T10:29:18;2.55;;;0.73;;
21661;SDS011;10992;48.170;8.596;2023-10-31T10:31:46;1.27;;;0.50;;
21661;SDS011;10992;48.170;8.596;2023-10-31T10:34:14;3.15;;;0.93;;
21661;SDS011;10992;48.170;8.596;2023-10-31T10:36:44;3.53;;;1.02;;
21661;SDS011;10992;48.170;8.596;2023-10-31T10:39:13;1.88;;;1.00;;
21661;SDS011;10992;48.170;8.596;2023-10-31T10:41:46;0.60;;;0.52;;
21661;SDS011;10992;48.170;8.596;2023-10-31T10:44:20;2.17;;;1.20;;
21661;SDS011;10992;48.170;8.596;2023-10-31T10:47:03;1.20;;;0.40;;
21661;SDS011;10992;48.170;8.596;2023-10-31T10:49:33;1.13;;;0.50;;
21661;SDS011;10992;48.170;8.596;2023-10-31T10:54:45;2.13;;;0.98;;
21661;SDS011;10992;48.170;8.596;2023-10-31T10:57:38;1.08;;;0.55;;
21661;SDS011;10992;48.170;8.596;2023-10-31T11:00:14;1.75;;;0.40;;
21661;SDS011;10992;48.170;8.596;2023-10-31T11:02:41;0.88;;;0.70;;
21661;SDS011;10992;48.170;8.596;2023-10-31T11:05:10;0.93;;;0.55;;
21661;SDS011;10992;48.170;8.596;2023-10-31T11:07:38;1.67;;;0.85;;
21661;SDS011;10992;48.170;8.596;2023-10-31T11:10:06;1.15;;;0.50;;
21661;SDS011;10992;48.170;8.596;2023-10-31T11:12:34;2.40;;;1.52;;
21661;SDS011;10992;48.170;8.596;2023-10-31T11:15:03;1.60;;;0.60;;
21661;SDS011;10992;48.170;8.596;2023-10-31T11:17:35;8.07;;;3.40;;
21661;SDS011;10992;48.170;8.596;2023-10-31T11:20:07;5.00;;;2.60;;
21661;SDS011;10992;48.170;8.596;2023-10-31T11:22:36;2.40;;;1.17;;
21661;SDS011;10992;48.170;8.596;2023-10-31T11:25:07;2.15;;;1.10;;
21661;SDS011;10992;48.170;8.596;2023-10-31T11:27:47;3.40;;;1.30;;
21661;SDS011;10992;48.170;8.596;2023-10-31T11:30:26;2.40;;;1.67;;
21661;SDS011;10992;48.170;8.596;2023-10-31T11:32:55;1.85;;;1.40;;
21661;SDS011;10992;48.170;8.596;2023-10-31T11:35:24;2.63;;;0.90;;
21661;SDS011;10992;48.170;8.596;2023-10-31T11:38:01;1.90;;;0.60;;
21661;SDS011;10992;48.170;8.596;2023-10-31T11:40:30;2.22;;;1.10;;
21661;SDS011;10992;48.170;8.596;2023-10-31T11:42:58;1.27;;;0.60;;
21661;SDS011;10992;48.170;8.596;2023-10-31T11:45:31;2.47;;;0.93;;
21661;SDS011;10992;48.170;8.596;2023-10-31T11:47:58;2.95;;;1.60;;
21661;SDS011;10992;48.170;8.596;2023-10-31T11:50:25;1.65;;;1.10;;
21661;SDS011;10992;48.170;8.596;2023-10-31T11:53:02;3.58;;;1.10;;
21661;SDS011;10992;48.170;8.596;2023-10-31T11:55:33;1.58;;;0.63;;
21661;SDS011;10992;48.170;8.596;2023-10-31T12:01:02;2.08;;;0.50;;
21661;SDS011;10992;48.170;8.596;2023-10-31T12:03:51;1.75;;;0.80;;
21661;SDS011;10992;48.170;8.596;2023-10-31T12:06:18;2.55;;;1.23;;
21661;SDS011;10992;48.170;8.596;2023-10-31T12:08:46;1.48;;;0.60;;
21661;SDS011;10992;48.170;8.596;2023-10-31T12:16:29;0.85;;;0.57;;
21661;SDS011;10992;48.170;8.596;2023-10-31T12:18:57;2.50;;;1.27;;
21661;SDS011;10992;48.170;8.596;2023-10-31T12:21:42;1.17;;;0.80;;
21661;SDS011;10992;48.170;8.596;2023-10-31T12:24:17;1.38;;;0.57;;
21661;SDS011;10992;48.170;8.596;2023-10-31T12:26:44;1.58;;;0.60;;
21661;SDS011;10992;48.170;8.596;2023-10-31T12:29:14;2.03;;;0.63;;
21661;SDS011;10992;48.170;8.596;2023-10-31T12:31:45;1.23;;;0.68;;
21661;SDS011;10992;48.170;8.596;2023-10-31T12:34:15;4.43;;;1.15;;
21661;SDS011;10992;48.170;8.596;2023-10-31T12:36:43;1.98;;;1.05;;
21661;SDS011;10992;48.170;8.596;2023-10-31T12:39:11;1.00;;;0.63;;
21661;SDS011;10992;48.170;8.596;2023-10-31T12:41:39;2.40;;;1.00;;
21661;SDS011;10992;48.170;8.596;2023-10-31T12:44:07;2.78;;;0.73;;
21661;SDS011;10992;48.170;8.596;2023-10-31T12:46:40;3.95;;;0.80;;
21661;SDS011;10992;48.170;8.596;2023-10-31T12:49:11;2.55;;;0.90;;
21661;SDS011;10992;48.170;8.596;2023-10-31T12:54:34;2.95;;;0.80;;
21661;SDS011;10992;48.170;8.596;2023-10-31T12:57:06;1.00;;;0.45;;
21661;SDS011;10992;48.170;8.596;2023-10-31T12:59:35;1.15;;;0.65;;
21661;SDS011;10992;48.170;8.596;2023-10-31T13:02:04;0.65;;;0.50;;
21661;SDS011;10992;48.170;8.596;2023-10-31T13:04:32;5.30;;;0.52;;
21661;SDS011;10992;48.170;8.596;2023-10-31T13:07:02;2.00;;;0.57;;
21661;SDS011;10992;48.170;8.596;2023-10-31T13:09:30;2.15;;;0.80;;
21661;SDS011;10992;48.170;8.596;2023-10-31T13:11:59;5.18;;;1.00;;
21661;SDS011;10992;48.170;8.596;2023-10-31T13:14:28;4.65;;;1.48;;
21661;SDS011;10992;48.170;8.596;2023-10-31T13:16:55;4.90;;;1.33;;
21661;SDS011;10992;48.170;8.596;2023-10-31T13:19:22;5.03;;;1.55;;
21661;SDS011;10992;48.170;8.596;2023-10-31T13:21:49;2.25;;;1.15;;
21661;SDS011;10992;48.170;8.596;2023-10-31T13:24:16;3.95;;;1.73;;
21661;SDS011;10992;48.170;8.596;2023-10-31T13:26:43;2.80;;;1.30;;
21661;SDS011;10992;48.170;8.596;2023-10-31T13:29:18;8.27;;;4.15;;
21661;SDS011;10992;48.170;8.596;2023-10-31T13:31:46;3.58;;;1.92;;
21661;SDS011;10992;48.170;8.596;2023-10-31T13:34:13;7.43;;;1.92;;
21661;SDS011;10992;48.170;8.596;2023-10-31T13:36:40;4.47;;;1.80;;
21661;SDS011;10992;48.170;8.596;2023-10-31T13:39:07;2.35;;;1.20;;
21661;SDS011;10992;48.170;8.596;2023-10-31T13:41:35;1.55;;;0.82;;
21661;SDS011;10992;48.170;8.596;2023-10-31T13:44:02;1.08;;;0.80;;
21661;SDS011;10992;48.170;8.596;2023-10-31T13:46:30;3.45;;;1.10;;
21661;SDS011;10992;48.170;8.596;2023-10-31T13:48:57;1.42;;;0.90;;
21661;SDS011;10992;48.170;8.596;2023-10-31T13:51:23;2.45;;;1.25;;
21661;SDS011;10992;48.170;8.596;2023-10-31T13:53:50;3.38;;;0.90;;
21661;SDS011;10992;48.170;8.596;2023-10-31T13:56:17;2.17;;;0.70;;
21661;SDS011;10992;48.170;8.596;2023-10-31T13:58:44;1.48;;;1.02;;
21661;SDS011;10992;48.170;8.596;2023-10-31T14:01:11;2.80;;;1.20;;
21661;SDS011;10992;48.170;8.596;2023-10-31T14:03:38;1.38;;;0.50;;
21661;SDS011;10992;48.170;8.596;2023-10-31T14:06:05;1.58;;;0.50;;
21661;SDS011;10992;48.170;8.596;2023-10-31T14:08:32;1.77;;;0.68;;
21661;SDS011;10992;48.170;8.596;2023-10-31T14:10:59;1.95;;;0.60;;
21661;SDS011;10992;48.170;8.596;2023-10-31T14:13:27;2.40;;;1.02;;
21661;SDS011;10992;48.170;8.596;2023-10-31T14:15:54;1.70;;;0.98;;
21661;SDS011;10992;48.170;8.596;2023-10-31T14:18:21;1.35;;;0.80;;
21661;SDS011;10992;48.170;8.596;2023-10-31T14:20:48;2.47;;;0.80;;
21661;SDS011;10992;48.170;8.596;2023-10-31T14:23:14;2.55;;;1.50;;
21661;SDS011;10992;48.170;8.596;2023-10-31T14:25:41;2.88;;;0.65;;
21661;SDS011;10992;48.170;8.596;2023-10-31T14:28:09;2.63;;;1.30;;
21661;SDS011;10992;48.170;8.596;2023-10-31T14:30:36;2.45;;;1.08;;
21661;SDS011;10992;48.170;8.596;2023-10-31T14:33:03;2.97;;;1.40;;
21661;SDS011;10992;48.170;8.596;2023-10-31T14:35:30;2.25;;;1.55;;
21661;SDS011;10992;48.170;8.596;2023-10-31T14:37:57;2.88;;;1.73;;
21661;SDS011;10992;48.170;8.596;2023-10-31T14:40:24;3.00;;;1.10;;
21661;SDS011;10992;48.170;8.596;2023-10-31T14:42:51;1.45;;;0.68;;
21661;SDS011;10992;48.170;8.596;2023-10-31T14:45:18;1.63;;;0.70;;
21661;SDS011;10992;48.170;8.596;2023-10-31T14:47:45;1.35;;;0.80;;
21661;SDS011;10992;48.170;8.596;2023-10-31T14:50:12;0.95;;;0.68;;
21661;SDS011;10992;48.170;8.596;2023-10-31T14:52:39;4.18;;;1.17;;
21661;SDS011;10992;48.170;8.596;2023-10-31T14:55:07;0.95;;;0.85;;
21661;SDS011;10992;48.170;8.596;2023-10-31T14:57:35;1.42;;;0.82;;
21661;SDS011;10992;48.170;8.596;2023-10-31T15:00:02;1.83;;;0.80;;
21661;SDS011;10992;48.170;8.596;2023-10-31T15:02:30;4.07;;;1.42;;
21661;SDS011;10992;48.170;8.596;2023-10-31T15:04:57;2.13;;;1.10;;
21661;SDS011;10992;48.170;8.596;2023-10-31T15:07:23;4.13;;;0.80;;